Time;durP1;ratioP1;P1;durP2;ratioP2;P2;SDS_P1;SDS_P2;PMS_P1;PMS_P2;Temp;Humidity;BMP_temperature;BMP_pressure;BME280_temperature;BME280_humidity;BME280_pressure;Samples;Min_cycle;Max_cycle;Signal;HPM_P1;HPM_P2
2022/03/31 00:02:46;;;;;;;9.13;3.37;;;-1.70;99.90;;;;;;6187515;28;20301;-81
2022/03/31 00:05:53;;;;;;;6.43;3.63;;;-1.70;99.90;;;;;;6187843;28;20274;-81
2022/03/31 00:08:58;;;;;;;16.37;3.63;;;-1.70;99.90;;;;;;6187353;28;20300;-81
2022/03/31 00:12:05;;;;;;;7.90;4.10;;;-1.80;99.90;;;;;;6186874;28;20548;-81
2022/03/31 00:15:11;;;;;;;10.93;3.50;;;-1.70;99.90;;;;;;6187288;28;20270;-81
2022/03/31 00:18:19;;;;;;;6.63;3.77;;;-1.80;99.90;;;;;;6187299;28;20309;-81
2022/03/31 00:21:54;;;;;;;8.07;3.70;;;-1.70;99.90;;;;;;6180130;28;20278;-81
2022/03/31 00:25:00;;;;;;;9.73;3.50;;;-1.70;99.90;;;;;;6169867;28;20273;-81
2022/03/31 00:28:05;;;;;;;7.43;3.33;;;-1.70;99.90;;;;;;6186818;28;20387;-81
2022/03/31 00:31:12;;;;;;;8.10;3.23;;;-1.70;99.90;;;;;;6170534;28;20274;-80
2022/03/31 00:34:19;;;;;;;9.43;2.97;;;-1.70;99.90;;;;;;6187825;28;20298;-81
2022/03/31 00:37:24;;;;;;;10.73;3.40;;;-1.70;99.90;;;;;;6170818;28;20415;-80
2022/03/31 00:40:33;;;;;;;13.57;4.07;;;-1.70;99.90;;;;;;6170314;28;20282;-81
2022/03/31 00:43:38;;;;;;;8.70;3.17;;;-1.70;99.90;;;;;;6187353;28;20302;-81
2022/03/31 00:46:49;;;;;;;4.97;3.00;;;-1.80;99.90;;;;;;6174462;28;20281;-81
2022/03/31 00:49:55;;;;;;;9.43;3.30;;;-1.80;99.90;;;;;;6191724;28;20302;-81
2022/03/31 00:53:03;;;;;;;10.73;2.87;;;-1.80;99.90;;;;;;6158769;28;20488;-81
2022/03/31 00:56:29;;;;;;;7.10;2.80;;;-1.80;99.90;;;;;;6191440;28;20279;-81
2022/03/31 00:59:34;;;;;;;8.57;2.87;;;-1.80;99.90;;;;;;6191154;28;20375;-81
2022/03/31 01:02:43;;;;;;;11.65;2.85;;;-1.80;99.90;;;;;;6411492;23;20304;31
2022/03/31 01:06:20;;;;;;;8.83;3.10;;;-1.90;99.90;;;;;;6123314;29;20281;-80
2022/03/31 01:09:27;;;;;;;7.90;3.40;;;-1.90;99.90;;;;;;6113423;29;20307;-80
2022/03/31 01:12:33;;;;;;;8.90;2.90;;;-1.90;99.90;;;;;;6123511;29;20323;-79
2022/03/31 01:15:39;;;;;;;8.33;3.47;;;-1.90;99.90;;;;;;6142828;29;20591;-80
2022/03/31 01:18:47;;;;;;;6.17;2.67;;;-1.90;99.90;;;;;;6143102;29;20304;-80
2022/03/31 01:21:54;;;;;;;12.13;2.90;;;-1.90;99.90;;;;;;6108306;29;20273;-80
2022/03/31 01:25:05;;;;;;;10.70;3.13;;;-1.90;99.90;;;;;;6094851;29;20306;-80
2022/03/31 01:28:13;;;;;;;7.87;3.13;;;-1.90;99.90;;;;;;6094542;29;20302;-80
2022/03/31 01:31:20;;;;;;;10.43;3.00;;;-2.00;99.90;;;;;;6095244;29;20567;-80
2022/03/31 01:34:25;;;;;;;6.37;2.80;;;-2.00;99.90;;;;;;6095915;29;20298;-81
2022/03/31 01:37:32;;;;;;;9.80;2.60;;;-2.00;99.90;;;;;;6095935;29;20293;-81
2022/03/31 01:40:39;;;;;;;4.67;3.03;;;-2.00;99.90;;;;;;6118775;29;20295;-81
2022/03/31 01:43:44;;;;;;;8.27;2.47;;;-2.00;99.90;;;;;;6119041;29;20303;-80
2022/03/31 01:46:50;;;;;;;3.03;2.57;;;-2.10;99.90;;;;;;6102488;29;20298;-80
2022/03/31 01:49:55;;;;;;;5.80;2.50;;;-2.10;99.90;;;;;;6101379;29;20307;-80
2022/03/31 01:53:01;;;;;;;9.80;2.77;;;-2.10;99.90;;;;;;6118563;29;20304;-80
2022/03/31 01:56:08;;;;;;;4.80;2.80;;;-2.10;99.90;;;;;;6117598;29;20279;-80
2022/03/31 01:59:13;;;;;;;5.10;2.50;;;-2.10;99.90;;;;;;6118869;29;20305;-79
2022/03/31 02:02:20;;;;;;;4.30;2.40;;;-2.20;99.90;;;;;;6117284;29;20919;-80
2022/03/31 02:05:26;;;;;;;11.53;3.10;;;-2.20;99.90;;;;;;6118225;29;20308;-80
2022/03/31 02:08:31;;;;;;;3.27;2.97;;;-2.40;99.90;;;;;;6101494;29;20311;-80
2022/03/31 02:11:38;;;;;;;7.37;2.57;;;-2.40;99.90;;;;;;6118931;29;20464;-80
2022/03/31 02:14:44;;;;;;;7.13;3.10;;;-2.50;99.90;;;;;;6141103;29;20283;-80
2022/03/31 02:17:50;;;;;;;3.67;2.80;;;-2.50;99.90;;;;;;6141651;29;20483;-80
2022/03/31 02:20:55;;;;;;;3.27;2.43;;;-2.50;99.90;;;;;;6125789;29;20298;-80
2022/03/31 02:24:02;;;;;;;10.07;2.70;;;-2.50;99.90;;;;;;6141528;29;20366;-80
2022/03/31 02:27:11;;;;;;;6.40;2.80;;;-2.50;99.90;;;;;;6124012;29;20464;-79
2022/03/31 02:30:16;;;;;;;5.67;3.00;;;-2.50;99.90;;;;;;6141849;29;20559;-80
2022/03/31 02:33:22;;;;;;;7.17;2.53;;;-2.50;99.90;;;;;;6123936;29;20302;-80
2022/03/31 02:36:27;;;;;;;3.07;2.83;;;-2.50;99.90;;;;;;6125158;29;20282;-80
2022/03/31 02:39:32;;;;;;;5.50;2.70;;;-2.50;99.90;;;;;;6140761;29;20301;-80
2022/03/31 02:42:39;;;;;;;7.07;2.70;;;-2.50;99.90;;;;;;6140786;29;20298;-80
2022/03/31 02:45:45;;;;;;;4.47;3.03;;;-2.60;99.90;;;;;;6141515;29;20283;-79
2022/03/31 02:48:50;;;;;;;4.43;2.80;;;-2.60;99.90;;;;;;6141101;29;20302;-80
2022/03/31 02:51:55;;;;;;;4.00;2.73;;;-2.60;99.90;;;;;;6141500;29;20562;-80
2022/03/31 02:58:24;;;;;;;4.27;2.70;;;-2.60;99.90;;;;;;6140698;29;20501;-80
2022/03/31 03:01:30;;;;;;;4.53;2.33;;;-2.70;99.90;;;;;;6113262;29;20483;-80
2022/03/31 03:04:35;;;;;;;10.57;2.90;;;-2.60;99.90;;;;;;6092073;29;20306;-80
2022/03/31 03:07:41;;;;;;;5.00;2.70;;;-2.60;99.90;;;;;;6110810;29;20298;-80
2022/03/31 03:10:47;;;;;;;2.90;2.40;;;-2.70;99.90;;;;;;6092110;29;20271;-80
2022/03/31 03:13:54;;;;;;;3.10;2.80;;;-2.70;99.90;;;;;;6093330;29;20298;-80
2022/03/31 03:17:00;;;;;;;8.93;2.70;;;-2.70;99.90;;;;;;6092285;29;20275;-80
2022/03/31 03:20:06;;;;;;;10.50;3.00;;;-2.70;99.90;;;;;;6108119;29;20291;-80
2022/03/31 03:23:15;;;;;;;8.73;2.27;;;-2.70;99.90;;;;;;6116607;29;20378;-80
2022/03/31 03:26:20;;;;;;;3.63;2.63;;;-2.70;99.90;;;;;;6117316;29;20275;-80
2022/03/31 03:29:28;;;;;;;4.00;2.50;;;-2.70;99.90;;;;;;6116316;29;20300;-80
2022/03/31 03:32:34;;;;;;;4.00;3.03;;;-2.70;99.90;;;;;;6115372;29;20309;-80
2022/03/31 03:35:40;;;;;;;8.20;2.60;;;-2.80;99.90;;;;;;6114155;29;20547;-80
2022/03/31 03:38:45;;;;;;;3.70;2.53;;;-2.80;99.90;;;;;;6092900;29;20304;-80
2022/03/31 03:41:51;;;;;;;5.80;3.17;;;-2.80;99.90;;;;;;6093694;29;20303;-80
2022/03/31 03:44:58;;;;;;;2.90;2.80;;;-2.90;99.90;;;;;;6092501;29;20308;-80
2022/03/31 03:48:05;;;;;;;2.73;2.47;;;-2.90;99.90;;;;;;6093178;29;20587;-80
2022/03/31 03:51:10;;;;;;;5.63;2.50;;;-2.80;99.90;;;;;;6093501;29;20283;-80
2022/03/31 03:54:16;;;;;;;4.53;2.57;;;-2.90;99.90;;;;;;6092792;29;20480;-80
2022/03/31 03:57:23;;;;;;;2.63;2.50;;;-2.90;99.90;;;;;;6075692;29;20299;-80
2022/03/31 04:00:30;;;;;;;2.67;2.57;;;-2.90;99.90;;;;;;6092857;29;20308;-80
2022/03/31 04:03:36;;;;;;;3.50;2.57;;;-2.90;99.90;;;;;;6091459;29;20303;-80
2022/03/31 04:06:42;;;;;;;3.10;2.63;;;-2.90;99.90;;;;;;6093410;29;20275;-80
2022/03/31 04:09:48;;;;;;;4.67;2.67;;;-2.90;99.90;;;;;;6094675;29;20298;-80
2022/03/31 04:12:53;;;;;;;4.70;2.20;;;-2.90;99.90;;;;;;6115987;29;20304;-79
2022/03/31 04:16:00;;;;;;;7.63;2.40;;;-2.90;99.90;;;;;;6115882;29;20586;-79
2022/03/31 04:19:07;;;;;;;2.23;2.10;;;-2.90;99.90;;;;;;6117206;29;20298;-80
2022/03/31 04:22:13;;;;;;;5.90;2.43;;;-2.90;99.90;;;;;;6120344;29;20299;-79
2022/03/31 04:25:18;;;;;;;4.13;2.57;;;-2.90;99.90;;;;;;6121189;29;20282;-80
2022/03/31 04:28:37;;;;;;;8.30;2.53;;;-2.90;99.90;;;;;;6120276;29;20299;-80
2022/03/31 04:31:45;;;;;;;2.53;2.33;;;-2.90;99.90;;;;;;6119589;29;20287;-79
2022/03/31 04:34:50;;;;;;;5.77;2.50;;;-2.90;99.90;;;;;;6120091;29;20299;-80
2022/03/31 04:37:55;;;;;;;8.87;2.60;;;-2.90;99.90;;;;;;6120047;29;20311;-79
2022/03/31 04:41:01;;;;;;;5.33;2.57;;;-2.90;99.90;;;;;;6120324;29;20350;-80
2022/03/31 04:44:07;;;;;;;3.10;2.20;;;-2.90;99.90;;;;;;6119812;29;20305;-79
2022/03/31 04:47:14;;;;;;;6.63;2.80;;;-2.90;99.90;;;;;;6120202;29;20277;-80
2022/03/31 04:50:20;;;;;;;2.93;2.40;;;-2.80;99.90;;;;;;6104158;29;20279;-80
2022/03/31 04:53:25;;;;;;;6.50;2.60;;;-2.90;99.90;;;;;;6119861;29;20310;-80
2022/03/31 04:56:31;;;;;;;3.73;2.30;;;-2.80;99.90;;;;;;6118788;29;20278;-79
2022/03/31 04:59:36;;;;;;;3.50;2.17;;;-2.80;99.90;;;;;;6119655;29;20302;-79
2022/03/31 05:02:43;;;;;;;6.03;2.50;;;-2.70;99.90;;;;;;6119522;29;20302;-81
2022/03/31 05:05:49;;;;;;;2.87;2.50;;;-2.70;99.90;;;;;;6118922;29;20582;-80
2022/03/31 05:08:54;;;;;;;4.87;2.73;;;-2.70;99.90;;;;;;6120174;29;20304;-80
2022/03/31 05:12:00;;;;;;;6.80;3.47;;;-2.70;99.90;;;;;;6099296;29;20288;-80
2022/03/31 05:15:07;;;;;;;8.90;3.70;;;-2.70;99.90;;;;;;6096630;29;20280;-81
2022/03/31 05:18:16;;;;;;;13.10;4.70;;;-2.60;99.90;;;;;;6096153;29;20300;-79
2022/03/31 05:21:21;;;;;;;14.57;4.97;;;-2.60;99.90;;;;;;6096082;29;20305;-80
2022/03/31 05:24:29;;;;;;;10.00;5.10;;;-2.50;99.90;;;;;;6095995;29;20312;-80
2022/03/31 05:27:35;;;;;;;18.23;6.40;;;-2.50;99.90;;;;;;6095633;29;20300;-80
2022/03/31 05:30:43;;;;;;;7.53;5.13;;;-2.50;99.90;;;;;;6096015;29;20275;-81
2022/03/31 05:33:52;;;;;;;18.60;5.70;;;-2.40;99.90;;;;;;6094338;29;20503;-81
2022/03/31 05:36:57;;;;;;;8.67;3.93;;;-2.40;99.90;;;;;;6095768;29;20279;-81
2022/03/31 05:40:06;;;;;;;11.23;3.53;;;-2.30;99.90;;;;;;6096851;29;20427;-89
2022/03/31 05:43:16;;;;;;;6.07;3.17;;;-2.30;99.90;;;;;;6094710;29;20300;-85
2022/03/31 05:46:24;;;;;;;7.43;4.00;;;-2.30;99.90;;;;;;6064182;29;20284;-82
2022/03/31 05:49:32;;;;;;;7.07;3.00;;;-2.20;99.90;;;;;;6095438;29;20296;-83
2022/03/31 05:52:40;;;;;;;7.83;3.27;;;-2.10;99.90;;;;;;6094721;29;20300;-81
2022/03/31 05:55:45;;;;;;;14.30;3.77;;;-2.00;99.90;;;;;;6095430;29;20276;-81
2022/03/31 05:58:51;;;;;;;9.13;3.00;;;-2.00;99.90;;;;;;6095031;29;20312;-80
2022/03/31 06:01:56;;;;;;;10.20;3.10;;;-1.90;99.90;;;;;;6094547;29;20303;-80
2022/03/31 06:05:03;;;;;;;4.50;2.57;;;-1.90;99.90;;;;;;6112513;29;20299;-80
2022/03/31 06:08:12;;;;;;;12.07;2.80;;;-1.80;99.90;;;;;;6114106;29;20298;-81
2022/03/31 06:11:19;;;;;;;6.73;2.90;;;-1.70;99.90;;;;;;6116711;29;20299;-81
2022/03/31 06:14:26;;;;;;;11.40;2.70;;;-1.70;99.90;;;;;;6116595;29;20300;-81
2022/03/31 06:17:31;;;;;;;12.07;2.87;;;-1.60;99.90;;;;;;6115554;29;20296;-80
2022/03/31 06:20:38;;;;;;;8.33;2.63;;;-1.50;99.90;;;;;;6117045;29;20300;-81
2022/03/31 06:23:43;;;;;;;6.33;2.77;;;-1.40;99.90;;;;;;6115577;29;20312;-82
2022/03/31 06:26:49;;;;;;;9.13;3.00;;;-1.40;99.90;;;;;;6116780;29;20295;-81
2022/03/31 06:29:56;;;;;;;4.07;3.67;;;-1.30;99.90;;;;;;6098500;29;20303;-81
2022/03/31 06:33:02;;;;;;;13.67;3.20;;;-1.30;99.90;;;;;;6116053;29;20299;-82
2022/03/31 06:36:09;;;;;;;30.27;4.00;;;-1.30;99.90;;;;;;6116164;29;20479;-81
2022/03/31 06:39:14;;;;;;;16.57;3.70;;;-1.10;99.90;;;;;;6098147;29;20469;-82
2022/03/31 06:42:20;;;;;;;13.33;3.40;;;-1.10;99.90;;;;;;6114968;29;22164;-81
2022/03/31 06:45:28;;;;;;;24.37;3.43;;;-1.00;99.90;;;;;;6115349;29;20293;-82
2022/03/31 06:48:36;;;;;;;12.47;3.97;;;-0.90;99.90;;;;;;6098534;29;20471;-81
2022/03/31 06:51:43;;;;;;;18.07;4.47;;;-0.80;99.90;;;;;;6110517;29;20294;-81
2022/03/31 06:54:48;;;;;;;23.17;5.30;;;-0.70;99.90;;;;;;6115423;29;20296;-81
2022/03/31 06:57:54;;;;;;;19.60;4.20;;;-0.50;99.90;;;;;;6114903;29;20300;-81
2022/03/31 07:01:00;;;;;;;20.03;4.23;;;-0.40;99.90;;;;;;6115432;29;20607;-80
2022/03/31 07:04:07;;;;;;;14.93;4.10;;;-0.20;99.90;;;;;;6114526;29;20308;-80
2022/03/31 07:07:15;;;;;;;18.83;4.00;;;-0.20;99.90;;;;;;6114863;29;20302;-80
2022/03/31 07:10:22;;;;;;;26.93;4.53;;;0.00;99.90;;;;;;6115408;29;20300;-80
2022/03/31 07:13:28;;;;;;;27.20;4.20;;;0.10;99.90;;;;;;6114209;29;20293;-81
2022/03/31 07:16:32;;;;;;;13.83;3.70;;;0.10;99.90;;;;;;6114598;29;20295;-81
2022/03/31 07:19:39;;;;;;;9.67;3.30;;;0.20;99.90;;;;;;6113679;29;20354;-80
2022/03/31 07:22:48;;;;;;;21.20;4.00;;;0.40;99.90;;;;;;6114522;29;20592;-81
2022/03/31 07:25:54;;;;;;;15.80;3.47;;;0.40;99.90;;;;;;6115432;29;20297;-82
2022/03/31 07:29:00;;;;;;;20.10;3.67;;;0.40;99.90;;;;;;6113747;29;20487;-82
2022/03/31 07:32:06;;;;;;;9.77;3.03;;;0.50;99.60;;;;;;6114698;29;20605;-82
2022/03/31 07:35:12;;;;;;;12.97;3.07;;;0.50;99.30;;;;;;6115320;29;20290;-82
2022/03/31 07:38:20;;;;;;;5.03;2.43;;;0.50;98.60;;;;;;6114406;29;20303;-81
2022/03/31 07:41:26;;;;;;;13.13;2.60;;;0.60;98.50;;;;;;6114101;29;20298;-81
2022/03/31 07:44:32;;;;;;;11.20;2.43;;;0.70;98.30;;;;;;6114552;29;20473;-81
2022/03/31 07:47:38;;;;;;;8.80;2.10;;;0.70;97.40;;;;;;6114321;29;20303;-81
2022/03/31 07:50:43;;;;;;;6.97;1.80;;;0.70;97.00;;;;;;6098251;29;20296;-81
2022/03/31 07:53:50;;;;;;;14.10;2.17;;;0.70;96.20;;;;;;6114438;29;20306;-81
2022/03/31 07:56:56;;;;;;;5.90;1.70;;;0.80;94.70;;;;;;6098092;29;20329;-81
2022/03/31 08:00:03;;;;;;;2.80;1.37;;;0.90;92.80;;;;;;6098370;29;20291;-81
2022/03/31 08:03:17;;;;;;;1.83;1.40;;;1.00;90.10;;;;;;6113818;29;20311;-81
2022/03/31 08:06:24;;;;;;;2.77;1.33;;;1.00;89.40;;;;;;6114542;29;20306;-82
2022/03/31 08:09:31;;;;;;;0.80;0.80;;;1.00;89.30;;;;;;6114339;29;20622;-82
2022/03/31 08:12:36;;;;;;;1.03;1.03;;;1.10;75.60;;;;;;6114255;29;20299;-82
2022/03/31 08:15:42;;;;;;;1.00;1.00;;;1.10;75.60;;;;;;6114566;29;20299;-82
2022/03/31 08:18:49;;;;;;;1.70;1.60;;;1.20;81.00;;;;;;6112718;29;20311;-82
2022/03/31 08:21:55;;;;;;;1.80;1.50;;;1.20;80.80;;;;;;6114544;29;20595;-82
2022/03/31 08:25:06;;;;;;;3.50;1.20;;;1.30;80.70;;;;;;6113677;29;20571;-81
2022/03/31 08:28:12;;;;;;;1.23;1.10;;;1.30;83.50;;;;;;6113010;29;20474;-81
2022/03/31 08:31:18;;;;;;;2.30;1.43;;;1.40;75.00;;;;;;6114231;29;20299;-81
2022/03/31 08:34:23;;;;;;;2.70;1.27;;;1.60;75.60;;;;;;6113995;29;20303;-81
2022/03/31 08:37:29;;;;;;;1.50;0.90;;;1.70;67.30;;;;;;6114360;29;20295;-81
2022/03/31 08:40:36;;;;;;;8.53;1.13;;;1.70;67.40;;;;;;6098214;29;20292;-81
2022/03/31 08:43:43;;;;;;;4.80;1.43;;;1.70;66.20;;;;;;6114225;29;20348;-81
2022/03/31 08:46:51;;;;;;;6.83;1.33;;;1.80;68.80;;;;;;6114414;29;20291;-81
2022/03/31 08:49:57;;;;;;;6.83;1.27;;;1.90;67.10;;;;;;6113889;29;20314;-81
2022/03/31 08:53:03;;;;;;;1.87;1.30;;;1.90;62.40;;;;;;6113845;29;20301;-81
2022/03/31 08:56:12;;;;;;;2.67;1.30;;;2.00;60.20;;;;;;6114263;29;20595;-81
2022/03/31 08:59:20;;;;;;;1.03;1.03;;;2.10;61.10;;;;;;6113479;29;20299;-81
2022/03/31 09:02:26;;;;;;;1.23;1.13;;;2.10;56.20;;;;;;6088096;29;20471;-80
2022/03/31 09:05:37;;;;;;;7.70;1.33;;;2.20;56.60;;;;;;6097301;29;20299;-81
2022/03/31 09:08:43;;;;;;;2.43;1.10;;;2.20;58.80;;;;;;6100852;29;20299;-81
2022/03/31 09:11:51;;;;;;;1.10;1.10;;;2.30;55.70;;;;;;6077586;29;20313;-80
2022/03/31 09:14:57;;;;;;;3.90;1.20;;;2.40;52.90;;;;;;6094513;29;20304;-82
2022/03/31 09:18:02;;;;;;;3.07;1.30;;;2.40;53.90;;;;;;6093255;29;20294;-81
2022/03/31 09:21:12;;;;;;;2.60;1.23;;;2.50;53.80;;;;;;6094614;29;20296;-81
2022/03/31 09:24:20;;;;;;;1.40;1.30;;;2.50;54.30;;;;;;6092903;29;20295;-81
2022/03/31 09:27:28;;;;;;;1.37;1.37;;;2.60;53.30;;;;;;6094039;29;20464;-81
2022/03/31 09:30:33;;;;;;;1.10;1.10;;;2.70;54.60;;;;;;6077674;29;20299;-81
2022/03/31 09:33:41;;;;;;;2.47;1.50;;;2.70;52.40;;;;;;6093766;29;20297;-81
2022/03/31 09:36:51;;;;;;;3.97;1.30;;;2.80;52.60;;;;;;6077865;29;20300;-83
2022/03/31 09:39:57;;;;;;;2.93;1.10;;;2.80;51.20;;;;;;6093922;29;20297;-82
2022/03/31 09:43:04;;;;;;;1.30;1.20;;;3.00;52.50;;;;;;6093671;29;20300;-82
2022/03/31 09:46:22;;;;;;;1.20;1.20;;;3.00;49.60;;;;;;6078242;29;20403;-81
2022/03/31 09:49:29;;;;;;;1.00;1.00;;;3.10;50.40;;;;;;6093626;29;20300;-82
2022/03/31 09:52:38;;;;;;;1.60;1.20;;;3.20;52.00;;;;;;6093592;29;20304;-82
2022/03/31 09:55:44;;;;;;;1.60;1.43;;;3.40;51.60;;;;;;6093985;29;20300;-82
2022/03/31 09:58:53;;;;;;;2.10;1.50;;;3.40;51.90;;;;;;6093346;29;20626;-82
2022/03/31 10:01:59;;;;;;;2.63;1.20;;;3.40;52.00;;;;;;6091895;29;20302;-82
2022/03/31 10:05:06;;;;;;;1.67;1.20;;;3.40;50.00;;;;;;6093323;29;20300;-82
2022/03/31 10:08:15;;;;;;;3.70;1.50;;;3.50;49.90;;;;;;6093691;29;20299;-82
2022/03/31 10:11:23;;;;;;;0.93;0.93;;;3.50;50.70;;;;;;6109022;29;20599;-82
2022/03/31 10:14:36;;;;;;;2.27;1.20;;;3.50;47.70;;;;;;6099702;29;20303;-83
2022/03/31 10:17:43;;;;;;;1.20;1.10;;;3.50;47.50;;;;;;6097884;29;20471;-82
2022/03/31 10:20:57;;;;;;;1.40;1.30;;;3.70;48.20;;;;;;6116548;29;20462;-83
2022/03/31 10:27:30;;;;;;;2.00;0.90;;;3.70;46.60;;;;;;6116146;29;20298;-81
2022/03/31 10:30:38;;;;;;;1.73;1.10;;;3.60;46.20;;;;;;6116372;29;20291;-82
2022/03/31 10:33:52;;;;;;;2.47;1.10;;;3.60;47.10;;;;;;6115813;29;20303;-82
2022/03/31 10:37:07;;;;;;;1.83;1.10;;;3.60;47.80;;;;;;6115782;29;20296;-81
2022/03/31 10:40:16;;;;;;;2.47;1.17;;;3.60;48.10;;;;;;6114747;29;20292;-82
2022/03/31 10:43:25;;;;;;;5.53;1.33;;;3.70;48.50;;;;;;6115549;29;20618;-81
2022/03/31 10:46:32;;;;;;;1.43;1.10;;;3.70;48.50;;;;;;6099499;29;20293;-82
2022/03/31 10:49:38;;;;;;;6.50;1.20;;;3.60;46.50;;;;;;6098983;29;20577;-82
2022/03/31 10:52:44;;;;;;;6.23;1.80;;;3.70;47.40;;;;;;6098946;29;20480;-82
2022/03/31 10:55:53;;;;;;;8.13;1.60;;;3.90;48.40;;;;;;6099595;29;20457;-82
2022/03/31 10:59:08;;;;;;;3.13;1.50;;;3.90;47.40;;;;;;6098665;29;20303;-82
2022/03/31 11:02:20;;;;;;;1.27;1.17;;;3.90;46.80;;;;;;6113769;29;20293;-82
2022/03/31 11:05:32;;;;;;;2.07;1.20;;;4.00;46.70;;;;;;6114085;29;20295;-82
2022/03/31 11:08:42;;;;;;;3.80;1.63;;;4.00;46.90;;;;;;6114986;29;20297;-82
2022/03/31 11:11:50;;;;;;;4.33;1.40;;;4.20;47.40;;;;;;6099504;29;20303;-82
2022/03/31 11:14:59;;;;;;;3.77;2.07;;;4.10;47.60;;;;;;6115472;29;20297;-82
2022/03/31 11:18:08;;;;;;;3.63;1.40;;;4.10;48.30;;;;;;6118034;29;20490;-82
2022/03/31 11:21:13;;;;;;;2.23;1.33;;;4.20;48.60;;;;;;6115030;29;20296;-82
2022/03/31 11:24:25;;;;;;;3.90;1.50;;;4.20;48.70;;;;;;6114846;29;20415;-82
2022/03/31 11:27:37;;;;;;;2.57;1.50;;;4.30;48.40;;;;;;6114427;29;20300;-82
2022/03/31 11:30:45;;;;;;;1.20;1.20;;;3.90;47.90;;;;;;6114963;29;20309;-83
2022/03/31 11:33:51;;;;;;;1.30;1.20;;;4.10;48.40;;;;;;6096899;29;20302;-83
2022/03/31 11:36:57;;;;;;;4.43;1.13;;;4.00;47.20;;;;;;6114459;29;20381;-83
2022/03/31 11:40:04;;;;;;;4.47;1.43;;;4.10;48.00;;;;;;6090104;29;20298;-83
2022/03/31 11:43:15;;;;;;;1.97;1.07;;;4.30;47.90;;;;;;6114658;29;20303;-83
2022/03/31 11:46:21;;;;;;;4.10;1.20;;;4.20;47.70;;;;;;6098145;29;20303;-83
2022/03/31 11:49:29;;;;;;;2.73;2.13;;;4.20;48.30;;;;;;6114340;29;20293;-83
2022/03/31 11:52:35;;;;;;;7.00;1.20;;;4.10;47.90;;;;;;6113642;29;20299;-83
2022/03/31 11:55:41;;;;;;;1.47;1.13;;;4.40;48.50;;;;;;6098445;29;20292;-84
2022/03/31 11:58:49;;;;;;;5.30;1.30;;;4.50;48.70;;;;;;6114549;29;20309;-83
2022/03/31 12:01:55;;;;;;;2.37;1.33;;;4.70;48.40;;;;;;6114835;29;20299;-84
2022/03/31 12:05:05;;;;;;;1.37;1.10;;;4.50;48.30;;;;;;6114358;29;20301;-84
2022/03/31 12:08:14;;;;;;;2.27;1.20;;;4.30;49.10;;;;;;6114441;29;20301;-84
2022/03/31 12:11:19;;;;;;;2.93;1.20;;;4.20;49.70;;;;;;6097916;29;20297;-83
2022/03/31 12:14:26;;;;;;;1.30;1.10;;;4.30;51.00;;;;;;6097405;29;20296;-84
2022/03/31 12:17:32;;;;;;;1.00;1.00;;;4.30;52.20;;;;;;6114545;29;20310;-84
2022/03/31 12:20:39;;;;;;;3.20;1.30;;;4.30;52.90;;;;;;6114831;29;20300;-84
2022/03/31 12:23:46;;;;;;;15.53;1.43;;;4.10;53.20;;;;;;6113964;29;20300;-84
2022/03/31 12:27:17;;;;;;;1.30;1.20;;;4.10;53.60;;;;;;6113986;29;20300;-83
2022/03/31 12:30:23;;;;;;;1.07;1.07;;;4.10;53.90;;;;;;6114544;29;20298;-84
2022/03/31 12:33:31;;;;;;;3.93;1.20;;;4.30;54.20;;;;;;6112676;29;20577;-84
2022/03/31 12:36:39;;;;;;;1.43;1.30;;;4.10;54.60;;;;;;6113114;29;20304;-83
2022/03/31 12:39:45;;;;;;;2.00;1.30;;;4.20;55.50;;;;;;6098023;29;20301;-84
2022/03/31 12:42:54;;;;;;;1.20;1.10;;;4.20;55.70;;;;;;6118566;29;20302;-84
2022/03/31 12:46:14;;;;;;;1.20;1.17;;;4.20;55.90;;;;;;6118603;29;20579;-84
2022/03/31 12:49:21;;;;;;;3.83;1.10;;;3.90;55.30;;;;;;6101126;29;20306;-82
2022/03/31 12:52:29;;;;;;;1.60;1.33;;;4.10;56.70;;;;;;6118549;29;20580;-82
2022/03/31 12:55:37;;;;;;;6.17;1.50;;;3.90;56.30;;;;;;6102600;29;20588;-82
2022/03/31 12:58:42;;;;;;;3.63;1.20;;;3.80;57.50;;;;;;6118173;29;20296;-82
2022/03/31 13:02:03;;;;;;;2.00;1.20;;;3.80;57.30;;;;;;6118604;29;20297;-82
2022/03/31 13:05:10;;;;;;;1.00;1.00;;;3.80;56.90;;;;;;6118136;29;20308;-82
2022/03/31 13:08:19;;;;;;;1.63;1.50;;;3.80;56.50;;;;;;6118008;29;20301;-82
2022/03/31 13:11:25;;;;;;;4.50;1.50;;;3.80;57.30;;;;;;6118913;29;20611;-82
2022/03/31 13:14:35;;;;;;;1.90;1.20;;;3.90;58.70;;;;;;6117967;29;20309;-83
2022/03/31 13:17:42;;;;;;;4.53;1.63;;;3.80;57.30;;;;;;6117814;29;20289;-82
2022/03/31 13:20:51;;;;;;;2.80;1.20;;;3.90;57.80;;;;;;6117994;29;20297;-82
2022/03/31 13:23:59;;;;;;;6.77;1.27;;;3.90;56.30;;;;;;6117367;29;20594;-82
2022/03/31 13:27:06;;;;;;;2.00;1.50;;;3.90;56.20;;;;;;6117677;29;20311;-82
2022/03/31 13:30:11;;;;;;;6.93;1.70;;;4.00;56.60;;;;;;6100840;29;20307;-82
2022/03/31 13:33:20;;;;;;;1.50;1.40;;;4.10;55.70;;;;;;6101394;29;20304;-82
2022/03/31 13:36:25;;;;;;;3.50;1.30;;;4.10;54.50;;;;;;6117613;29;20303;-82
2022/03/31 13:39:35;;;;;;;5.10;1.73;;;4.10;55.50;;;;;;6100283;29;20301;-83
2022/03/31 13:42:41;;;;;;;4.30;1.17;;;4.10;54.20;;;;;;6117447;29;20481;-83
2022/03/31 13:45:47;;;;;;;4.87;1.40;;;4.00;53.80;;;;;;6117584;29;20299;-82
2022/03/31 13:48:53;;;;;;;3.90;1.40;;;3.90;53.40;;;;;;6099781;29;20488;-82
2022/03/31 13:51:59;;;;;;;2.00;1.20;;;4.00;53.00;;;;;;6117258;29;20296;-83
2022/03/31 13:55:09;;;;;;;2.63;1.20;;;4.00;53.60;;;;;;6117589;29;20289;-83
2022/03/31 14:01:38;;;;;;;3.13;1.40;;;3.80;58.40;;;;;;6117178;29;20321;-83
2022/03/31 14:04:44;;;;;;;6.43;1.27;;;3.80;62.20;;;;;;6116516;29;20307;-83
2022/03/31 14:07:50;;;;;;;2.57;1.37;;;3.80;65.90;;;;;;6114612;29;20311;-83
2022/03/31 14:10:57;;;;;;;5.00;1.40;;;3.80;66.70;;;;;;6084846;29;20598;-84
2022/03/31 14:14:06;;;;;;;7.10;1.67;;;3.80;73.00;;;;;;6115596;29;20340;-83
2022/03/31 14:17:11;;;;;;;4.57;1.30;;;3.70;80.30;;;;;;6116104;29;20304;-83
2022/03/31 14:20:17;;;;;;;2.83;1.40;;;3.60;87.80;;;;;;6117044;29;20454;-83
2022/03/31 14:23:22;;;;;;;2.53;1.30;;;3.60;90.70;;;;;;6102233;29;20307;-83
2022/03/31 14:26:34;;;;;;;1.87;1.30;;;3.50;92.10;;;;;;6119590;29;20443;-83
2022/03/31 14:29:44;;;;;;;1.30;1.20;;;3.50;91.50;;;;;;6116131;29;20300;-83
2022/03/31 14:32:50;;;;;;;2.00;1.40;;;3.50;91.60;;;;;;6116043;29;20311;-84
2022/03/31 14:35:57;;;;;;;7.30;1.50;;;3.40;91.80;;;;;;6116612;29;20296;-83
2022/03/31 14:39:04;;;;;;;2.67;1.37;;;3.40;92.00;;;;;;6116103;29;20304;-83
2022/03/31 14:42:13;;;;;;;6.23;1.63;;;3.00;93.80;;;;;;6115780;29;20473;-83
2022/03/31 14:45:19;;;;;;;7.53;1.57;;;2.80;95.80;;;;;;6099842;29;20294;-83
2022/03/31 14:48:27;;;;;;;3.13;1.50;;;2.80;96.70;;;;;;6114470;29;20501;-83
2022/03/31 14:51:35;;;;;;;5.10;1.50;;;2.90;97.60;;;;;;6100463;29;20580;-83
2022/03/31 14:54:41;;;;;;;9.27;1.87;;;2.70;98.30;;;;;;6115718;29;20354;-84
2022/03/31 14:57:48;;;;;;;6.90;1.53;;;2.70;98.90;;;;;;6115594;29;20307;-83
2022/03/31 15:00:54;;;;;;;2.17;1.50;;;2.70;99.50;;;;;;6116211;29;20592;-83
2022/03/31 15:04:01;;;;;;;1.80;1.37;;;2.70;99.90;;;;;;6114347;29;20306;-83
2022/03/31 15:07:06;;;;;;;6.30;1.50;;;2.50;99.90;;;;;;6115247;29;20295;-82
2022/03/31 15:17:00;;;;;;;2.00;1.60;;;2.50;99.90;;;;;;6098350;29;20296;-82
2022/03/31 15:20:08;;;;;;;1.63;1.20;;;2.50;99.90;;;;;;6098272;29;20310;-83
2022/03/31 15:23:14;;;;;;;2.40;1.40;;;2.50;99.90;;;;;;6114968;29;20306;-83
2022/03/31 15:26:22;;;;;;;2.27;1.20;;;2.50;99.50;;;;;;6115353;29;20578;-83
2022/03/31 15:29:29;;;;;;;1.30;1.30;;;2.40;98.50;;;;;;6114814;29;20492;-83
2022/03/31 15:32:34;;;;;;;2.87;1.40;;;2.40;98.20;;;;;;6115179;29;20296;-82
2022/03/31 15:35:41;;;;;;;1.03;1.03;;;2.50;97.90;;;;;;6114121;29;20610;-83
2022/03/31 15:38:46;;;;;;;3.00;1.30;;;2.50;96.60;;;;;;6114637;29;20299;-83
2022/03/31 15:41:52;;;;;;;2.53;1.40;;;2.50;96.80;;;;;;6115133;29;20572;-80
2022/03/31 15:44:59;;;;;;;6.60;1.73;;;2.50;96.30;;;;;;6098183;29;20297;-79
2022/03/31 15:48:06;;;;;;;5.73;1.47;;;2.50;96.80;;;;;;6114335;29;20300;-80
2022/03/31 15:51:12;;;;;;;1.67;1.40;;;2.50;96.50;;;;;;6114600;29;20303;-80
2022/03/31 15:54:17;;;;;;;2.73;1.30;;;2.50;96.40;;;;;;6097838;29;20481;-81
2022/03/31 15:57:24;;;;;;;3.33;1.23;;;2.50;94.10;;;;;;6112764;29;20299;-81
2022/03/31 16:00:31;;;;;;;2.60;1.30;;;2.50;94.40;;;;;;6113336;29;20312;-80
2022/03/31 16:03:38;;;;;;;3.00;1.53;;;2.50;94.30;;;;;;6114090;29;20307;-81
2022/03/31 16:06:44;;;;;;;1.70;1.60;;;2.50;94.80;;;;;;6114671;29;20304;-81
2022/03/31 16:09:49;;;;;;;5.40;1.90;;;2.50;95.20;;;;;;6114231;29;20311;-81
2022/03/31 16:12:56;;;;;;;4.07;1.60;;;2.40;96.70;;;;;;6097149;29;20307;-82
2022/03/31 16:16:03;;;;;;;3.87;1.40;;;2.30;97.20;;;;;;6101168;29;20303;-82
2022/03/31 16:19:09;;;;;;;4.43;1.50;;;2.30;96.50;;;;;;6087441;29;20301;-82
2022/03/31 16:22:18;;;;;;;2.20;1.30;;;2.30;95.70;;;;;;6117673;29;20335;-82
2022/03/31 16:25:24;;;;;;;1.10;1.10;;;2.30;94.90;;;;;;6119230;29;20291;-82
2022/03/31 16:28:31;;;;;;;5.20;1.80;;;2.30;94.90;;;;;;6118983;29;20300;-82
2022/03/31 16:31:38;;;;;;;2.93;1.30;;;2.30;95.30;;;;;;6102596;29;20292;-82
2022/03/31 16:34:43;;;;;;;1.10;1.10;;;2.30;96.50;;;;;;6119004;29;20306;-82
2022/03/31 16:37:49;;;;;;;4.00;1.47;;;2.20;97.50;;;;;;6101763;29;20303;-81